createdAt,value
2019-04-16T00:02:23.448Z,34.50
2019-04-16T00:05:07.705Z,32.00
2019-04-16T00:08:03.110Z,46.87
2019-04-16T00:10:41.526Z,34.13
2019-04-16T00:13:32.769Z,37.50
2019-04-16T00:16:04.755Z,40.73
2019-04-16T00:18:35.266Z,33.80
2019-04-16T00:21:38.420Z,40.33
2019-04-16T00:24:26.843Z,34.63
2019-04-16T00:26:59.927Z,36.90
2019-04-16T00:29:32.557Z,35.70
2019-04-16T00:32:15.811Z,41.37
2019-04-16T00:34:46.354Z,33.77
2019-04-16T00:37:20.376Z,47.67
2019-04-16T00:39:55.586Z,37.50
2019-04-16T00:42:23.232Z,38.77
2019-04-16T00:44:53.812Z,35.30
2019-04-16T00:47:26.418Z,45.77
2019-04-16T00:49:58.825Z,38.70
2019-04-16T00:52:29.257Z,41.97
2019-04-16T00:54:59.915Z,41.87
2019-04-16T00:57:31.149Z,39.50
2019-04-16T01:00:04.085Z,42.33
2019-04-16T01:02:34.764Z,44.97
2019-04-16T01:05:06.014Z,36.43
2019-04-16T01:07:36.648Z,42.97
2019-04-16T01:10:07.247Z,40.00
2019-04-16T01:12:37.733Z,39.90
2019-04-16T01:15:09.169Z,41.43
2019-04-16T01:17:39.706Z,49.70
2019-04-16T01:20:12.684Z,40.30
2019-04-16T01:22:46.631Z,36.67
2019-04-16T01:25:14.980Z,44.00
2019-04-16T01:27:49.408Z,41.03
2019-04-16T01:30:28.466Z,42.77
2019-04-16T01:33:14.267Z,36.47
2019-04-16T01:35:57.544Z,43.10
2019-04-16T01:38:40.421Z,42.40
2019-04-16T01:41:13.084Z,39.27
2019-04-16T01:43:43.707Z,43.37
2019-04-16T01:46:16.397Z,38.33
2019-04-16T01:48:47.017Z,42.67
2019-04-16T01:51:17.581Z,44.50
2019-04-16T01:53:49.438Z,44.00
2019-04-16T01:56:20.225Z,44.37
2019-04-16T01:58:50.791Z,40.37
2019-04-16T02:01:21.270Z,42.80
2019-04-16T02:03:51.816Z,46.37
2019-04-16T02:06:25.673Z,43.37
2019-04-16T02:08:56.159Z,44.50
2019-04-16T02:11:26.623Z,44.53
2019-04-16T02:13:57.147Z,50.20
2019-04-16T02:16:27.730Z,46.20
2019-04-16T02:19:00.811Z,53.07
2019-04-16T02:21:31.441Z,49.93
2019-04-16T02:24:01.978Z,51.33
2019-04-16T02:26:32.530Z,49.07
2019-04-16T02:29:03.203Z,48.40
2019-04-16T02:31:33.650Z,52.17
2019-04-16T02:34:04.192Z,47.00
2019-04-16T02:36:34.677Z,46.60
2019-04-16T02:39:08.627Z,54.67
2019-04-16T02:41:39.290Z,50.17
2019-04-16T02:44:15.907Z,56.03
2019-04-16T02:46:44.612Z,51.70
2019-04-16T02:49:15.184Z,55.20
2019-04-16T02:51:56.861Z,47.33
2019-04-16T02:54:55.297Z,47.43
2019-04-16T02:57:47.787Z,44.07
2019-04-16T03:00:36.171Z,46.30
2019-04-16T03:03:10.737Z,48.70
2019-04-16T03:05:43.857Z,45.97
2019-04-16T03:08:14.382Z,45.93
2019-04-16T03:10:45.398Z,50.07
2019-04-16T03:13:16.006Z,44.37
2019-04-16T03:16:05.982Z,46.63
2019-04-16T03:18:48.212Z,43.50
2019-04-16T03:21:18.991Z,47.33
2019-04-16T03:23:49.545Z,49.33
2019-04-16T03:26:20.040Z,48.43
2019-04-16T03:28:50.720Z,44.73
2019-04-16T03:31:23.468Z,51.53
2019-04-16T03:33:53.374Z,46.00
2019-04-16T03:36:26.555Z,44.03
2019-04-16T03:38:56.164Z,43.90
2019-04-16T03:41:26.743Z,44.17
2019-04-16T03:44:03.618Z,44.80
2019-04-16T03:46:33.845Z,46.57
2019-04-16T03:49:06.417Z,41.47
2019-04-16T03:51:39.612Z,49.87
2019-04-16T03:54:10.219Z,41.63
2019-04-16T03:56:40.725Z,39.17
2019-04-16T03:59:12.345Z,49.33
2019-04-16T04:01:45.610Z,48.30
2019-04-16T04:04:15.478Z,52.83
2019-04-16T04:06:46.033Z,46.00
2019-04-16T04:09:18.833Z,42.03
2019-04-16T04:11:48.797Z,44.93
2019-04-16T04:14:23.262Z,44.43
2019-04-16T04:16:53.656Z,44.53
2019-04-16T04:19:24.164Z,46.57
2019-04-16T04:21:55.790Z,43.87
2019-04-16T04:24:28.543Z,42.90
2019-04-16T04:26:58.366Z,50.97
2019-04-16T04:29:30.019Z,42.03
2019-04-16T04:32:03.120Z,39.73
2019-04-16T04:34:32.649Z,43.17
2019-04-16T04:37:03.101Z,43.53
2019-04-16T04:39:33.608Z,41.13
2019-04-16T04:42:04.098Z,44.17
2019-04-16T04:44:36.896Z,41.17
2019-04-16T04:47:07.458Z,41.83
2019-04-16T04:49:39.023Z,44.20
2019-04-16T04:52:13.554Z,39.10
2019-04-16T04:54:43.007Z,36.57
2019-04-16T04:57:13.491Z,43.17
2019-04-16T04:59:43.988Z,42.03
2019-04-16T05:02:15.449Z,44.07
2019-04-16T05:05:05.423Z,43.13
2019-04-16T05:07:35.921Z,45.33
2019-04-16T05:10:08.434Z,43.53
2019-04-16T05:12:39.015Z,40.33
2019-04-16T05:15:11.007Z,41.13
2019-04-16T05:17:41.508Z,40.07
2019-04-16T05:20:14.912Z,37.67
2019-04-16T05:22:44.337Z,34.47
2019-04-16T05:25:14.803Z,38.80
2019-04-16T05:27:45.462Z,39.73
2019-04-16T05:30:20.137Z,39.90
2019-04-16T05:32:48.455Z,39.23
2019-04-16T05:35:18.958Z,37.40
2019-04-16T05:37:51.621Z,32.73
2019-04-16T05:40:21.659Z,35.23
2019-04-16T05:42:52.722Z,37.33
2019-04-16T05:45:23.451Z,39.03
2019-04-16T05:47:55.230Z,40.50
2019-04-16T05:50:28.514Z,30.47
2019-04-16T05:52:59.119Z,32.17
2019-04-16T05:56:03.728Z,33.93
2019-04-16T05:58:34.208Z,37.63
2019-04-16T06:01:22.178Z,33.00
2019-04-16T06:03:53.301Z,31.77
2019-04-16T06:06:24.723Z,37.37
2019-04-16T06:08:56.160Z,39.63
2019-04-16T06:11:32.637Z,33.77
2019-04-16T06:14:08.319Z,33.77
2019-04-16T06:16:57.761Z,25.53
2019-04-16T06:19:50.111Z,24.57
2019-04-16T06:22:30.228Z,30.67
2019-04-16T06:25:17.558Z,26.30
2019-04-16T06:28:19.518Z,29.30
2019-04-16T06:31:05.082Z,21.10
2019-04-16T06:33:41.250Z,24.03
2019-04-16T06:36:29.622Z,23.87
2019-04-16T06:39:29.805Z,23.00
2019-04-16T06:42:20.973Z,21.93
2019-04-16T06:44:54.973Z,21.60
2019-04-16T06:47:35.935Z,21.37
2019-04-16T06:50:31.229Z,19.53
2019-04-16T06:53:15.182Z,22.77
2019-04-16T06:56:08.712Z,23.40
2019-04-16T06:58:50.850Z,24.47
2019-04-16T07:01:36.785Z,18.57
2019-04-16T07:04:14.209Z,25.17
2019-04-16T07:07:15.709Z,20.40
2019-04-16T07:09:58.235Z,19.97
2019-04-16T07:12:31.708Z,20.10
2019-04-16T07:15:02.240Z,20.43
2019-04-16T07:17:33.726Z,20.87
2019-04-16T07:20:05.297Z,17.67
2019-04-16T07:22:36.847Z,15.67
2019-04-16T07:25:07.481Z,18.93
2019-04-16T07:27:45.863Z,14.07
2019-04-16T07:30:22.752Z,14.33
2019-04-16T07:33:06.966Z,16.20
2019-04-16T07:36:08.870Z,13.73
2019-04-16T07:38:58.501Z,14.03
2019-04-16T07:42:08.434Z,11.53
2019-04-16T07:44:47.008Z,11.00
2019-04-16T07:47:24.768Z,13.70
2019-04-16T07:50:11.733Z,11.90
2019-04-16T07:52:59.927Z,13.27
2019-04-16T07:55:43.092Z,14.67
2019-04-16T07:58:13.594Z,15.27
2019-04-16T08:00:44.026Z,12.80
2019-04-16T08:03:15.376Z,11.37
2019-04-16T08:05:45.864Z,11.33
2019-04-16T08:08:16.452Z,11.40
2019-04-16T08:10:48.049Z,12.87
2019-04-16T08:13:20.978Z,10.37
2019-04-16T08:15:51.551Z,10.07
2019-04-16T08:18:22.098Z,13.83
2019-04-16T08:21:01.267Z,13.83
2019-04-16T08:23:43.914Z,12.10
2019-04-16T08:26:14.459Z,12.77
2019-04-16T08:28:44.948Z,11.60
2019-04-16T08:31:18.512Z,11.73
2019-04-16T08:33:48.997Z,16.23
2019-04-16T08:36:19.679Z,15.17
2019-04-16T08:38:50.178Z,12.90
2019-04-16T08:41:21.654Z,10.73
2019-04-16T08:43:52.477Z,9.83
2019-04-16T08:46:23.105Z,10.70
2019-04-16T08:48:54.437Z,11.50
2019-04-16T08:51:30.981Z,10.23
2019-04-16T08:53:57.423Z,13.63
2019-04-16T08:56:27.951Z,14.13
2019-04-16T08:59:00.966Z,8.80
2019-04-16T09:01:31.548Z,9.77
2019-04-16T09:04:03.085Z,8.80
2019-04-16T09:06:33.832Z,17.77
2019-04-16T09:09:16.779Z,13.63
2019-04-16T09:11:48.882Z,10.50
2019-04-16T09:14:21.030Z,13.50
2019-04-16T09:17:09.873Z,11.53
2019-04-16T09:19:44.996Z,9.43
2019-04-16T09:22:16.991Z,11.20
2019-04-16T09:25:01.452Z,10.83
2019-04-16T09:27:37.401Z,9.90
2019-04-16T09:30:25.779Z,11.50
2019-04-16T09:33:21.646Z,8.97
2019-04-16T09:36:11.141Z,8.77
2019-04-16T09:39:03.512Z,10.27
2019-04-16T09:41:39.194Z,9.77
2019-04-16T09:44:09.740Z,12.13
2019-04-16T09:46:51.074Z,11.97
2019-04-16T09:49:12.545Z,11.47
2019-04-16T09:51:43.531Z,15.70
2019-04-16T09:54:14.282Z,11.77
2019-04-16T09:56:44.904Z,10.23
2019-04-16T09:59:38.006Z,10.80
2019-04-16T10:02:29.805Z,9.93
2019-04-16T10:05:00.346Z,13.33
2019-04-16T10:07:30.871Z,10.90
2019-04-16T10:10:01.491Z,10.53
2019-04-16T10:12:33.212Z,11.70
2019-04-16T10:15:03.833Z,10.20
2019-04-16T10:17:34.412Z,11.07
2019-04-16T10:20:05.414Z,9.87
2019-04-16T10:22:35.934Z,11.37
2019-04-16T10:25:11.144Z,12.37
2019-04-16T10:27:46.943Z,11.23
2019-04-16T10:30:37.408Z,8.97
2019-04-16T10:33:08.195Z,10.93
2019-04-16T10:35:42.776Z,9.90
2019-04-16T10:38:30.966Z,10.60
2019-04-16T10:41:07.458Z,11.20
2019-04-16T10:44:15.473Z,13.43
2019-04-16T10:47:05.121Z,10.20
2019-04-16T10:49:47.759Z,6.33
2019-04-16T10:52:39.944Z,10.17
2019-04-16T10:55:24.606Z,8.43
2019-04-16T10:58:18.035Z,7.23
2019-04-16T11:00:58.987Z,10.40
2019-04-16T11:03:45.343Z,11.47
2019-04-16T11:06:34.846Z,12.97
2019-04-16T11:09:07.452Z,10.37
2019-04-16T11:11:38.087Z,8.27
2019-04-16T11:14:09.844Z,8.87
2019-04-16T11:16:42.981Z,11.17
2019-04-16T11:19:13.668Z,9.27
2019-04-16T11:21:44.380Z,8.80
2019-04-16T11:24:15.771Z,7.57
2019-04-16T11:26:46.847Z,9.73
2019-04-16T11:29:17.440Z,9.00
2019-04-16T11:31:47.969Z,10.00
2019-04-16T11:34:18.433Z,7.97
2019-04-16T11:36:48.945Z,10.10
2019-04-16T11:39:19.684Z,8.23
2019-04-16T11:41:50.296Z,8.90
2019-04-16T11:44:20.915Z,12.03
2019-04-16T11:46:51.400Z,8.77
2019-04-16T11:49:22.155Z,7.77
2019-04-16T11:51:52.739Z,7.90
2019-04-16T11:54:23.233Z,7.67
2019-04-16T11:56:55.554Z,8.60
2019-04-16T11:59:26.097Z,10.10
2019-04-16T12:02:01.260Z,10.20
2019-04-16T12:05:09.286Z,10.07
2019-04-16T12:08:01.484Z,8.23
2019-04-16T12:10:44.068Z,10.07
2019-04-16T12:13:31.005Z,9.73
2019-04-16T12:16:24.474Z,9.80
2019-04-16T12:19:32.915Z,8.50
2019-04-16T12:22:21.096Z,8.10
2019-04-16T12:25:10.742Z,9.00
2019-04-16T12:28:11.833Z,8.67
2019-04-16T12:31:04.768Z,10.73
2019-04-16T12:33:50.590Z,8.70
2019-04-16T12:36:47.611Z,10.37
2019-04-16T12:39:35.857Z,7.93
2019-04-16T12:42:09.848Z,11.00
2019-04-16T12:44:51.392Z,9.13
2019-04-16T12:47:31.608Z,6.53
2019-04-16T12:50:17.535Z,16.67
2019-04-16T12:53:10.923Z,12.60
2019-04-16T12:56:05.761Z,8.93
2019-04-16T12:58:59.666Z,7.40
2019-04-16T13:01:47.998Z,9.77
2019-04-16T13:04:38.203Z,6.27
2019-04-16T13:07:33.448Z,10.80
2019-04-16T13:10:26.438Z,6.27
2019-04-16T13:13:16.033Z,8.20
2019-04-16T13:16:00.516Z,6.53
2019-04-16T13:18:48.872Z,8.13
2019-04-16T13:21:21.576Z,8.70
2019-04-16T13:23:59.266Z,8.10
2019-04-16T13:26:49.143Z,7.43
2019-04-16T13:29:22.295Z,7.80
2019-04-16T13:31:52.855Z,8.13
2019-04-16T13:34:23.417Z,9.10
2019-04-16T13:36:59.347Z,7.83
2019-04-16T13:39:54.073Z,17.53
2019-04-16T13:42:24.779Z,8.67
2019-04-16T13:45:15.122Z,8.57
2019-04-16T13:47:34.831Z,6.80
2019-04-16T13:50:14.901Z,7.03
2019-04-16T13:52:45.612Z,8.50
2019-04-16T13:55:38.403Z,8.23
2019-04-16T13:58:22.998Z,8.93
2019-04-16T14:00:58.119Z,7.60
2019-04-16T14:03:28.705Z,6.00
2019-04-16T14:05:59.293Z,9.37
2019-04-16T14:08:29.878Z,9.33
2019-04-16T14:11:00.417Z,9.13
2019-04-16T14:13:31.063Z,7.23
2019-04-16T14:16:01.756Z,9.27
2019-04-16T14:18:32.692Z,6.80
2019-04-16T14:21:04.035Z,13.10
2019-04-16T14:23:34.611Z,7.23
2019-04-16T14:26:05.391Z,9.17
2019-04-16T14:28:51.255Z,9.77
2019-04-16T14:31:08.109Z,7.70
2019-04-16T14:34:05.353Z,8.93
2019-04-16T14:36:36.048Z,8.77
2019-04-16T14:39:23.982Z,9.57
2019-04-16T14:41:54.646Z,9.20
2019-04-16T14:44:31.609Z,11.37
2019-04-16T14:47:02.032Z,9.37
2019-04-16T14:49:32.851Z,6.17
2019-04-16T14:52:03.713Z,8.53
2019-04-16T14:55:02.432Z,10.37
2019-04-16T14:57:33.009Z,12.10
2019-04-16T15:00:30.236Z,11.47
2019-04-16T15:03:19.430Z,10.07
2019-04-16T15:06:17.054Z,16.30
2019-04-16T15:09:01.632Z,14.40
2019-04-16T15:11:58.224Z,13.87
2019-04-16T15:14:32.927Z,10.67
2019-04-16T15:17:13.429Z,11.57
2019-04-16T15:20:15.416Z,12.73
2019-04-16T15:23:12.570Z,9.67
2019-04-16T15:26:03.114Z,9.53
2019-04-16T15:28:46.462Z,10.23
2019-04-16T15:31:26.235Z,15.20
2019-04-16T15:34:12.627Z,10.83
2019-04-16T15:36:50.067Z,11.03
2019-04-16T15:39:26.443Z,12.30
2019-04-16T15:42:31.232Z,14.43
2019-04-16T15:45:20.648Z,10.30
2019-04-16T15:48:07.508Z,13.90
2019-04-16T15:50:44.809Z,9.57
2019-04-16T15:53:34.373Z,9.37
2019-04-16T15:56:16.010Z,9.07
2019-04-16T15:59:03.435Z,10.97
2019-04-16T16:02:01.822Z,11.77
2019-04-16T16:04:45.975Z,11.77
2019-04-16T16:07:23.993Z,9.33
2019-04-16T16:10:13.798Z,10.60
2019-04-16T16:12:44.846Z,9.33
2019-04-16T16:15:15.515Z,11.00
2019-04-16T16:17:47.397Z,8.37
2019-04-16T16:20:18.316Z,7.73
2019-04-16T16:22:48.858Z,11.93
2019-04-16T16:25:19.361Z,12.03
2019-04-16T16:27:49.885Z,9.10
2019-04-16T16:30:20.513Z,9.83
2019-04-16T16:32:51.078Z,10.13
2019-04-16T16:35:21.798Z,14.77
2019-04-16T16:37:52.537Z,9.83
2019-04-16T16:40:23.093Z,11.60
2019-04-16T16:42:54.416Z,8.90
2019-04-16T16:45:38.211Z,10.33
2019-04-16T16:48:09.011Z,8.43
2019-04-16T16:50:41.049Z,9.93
2019-04-16T16:53:26.992Z,11.07
2019-04-16T16:56:02.609Z,9.93
2019-04-16T16:58:43.368Z,13.73
2019-04-16T17:01:33.853Z,10.50
2019-04-16T17:04:20.467Z,14.03
2019-04-16T17:06:51.168Z,10.83
2019-04-16T17:09:40.788Z,13.10
2019-04-16T17:12:11.418Z,15.60
2019-04-16T17:14:42.008Z,15.17
2019-04-16T17:17:14.956Z,14.93
2019-04-16T17:19:44.864Z,12.73
2019-04-16T17:22:17.469Z,12.47
2019-04-16T17:24:47.874Z,12.77
2019-04-16T17:27:18.573Z,14.83
2019-04-16T17:29:49.727Z,12.77
2019-04-16T17:32:21.627Z,16.17
2019-04-16T17:34:52.172Z,16.90
2019-04-16T17:37:28.987Z,13.03
2019-04-16T17:40:27.557Z,12.13
2019-04-16T17:43:02.241Z,15.00
2019-04-16T17:46:03.889Z,20.63
2019-04-16T17:49:00.164Z,13.70
2019-04-16T17:54:37.614Z,17.20
2019-04-16T17:57:30.234Z,15.73
2019-04-16T18:00:34.728Z,14.20
2019-04-16T18:03:27.542Z,15.03
2019-04-16T18:06:20.118Z,15.40
2019-04-16T18:09:18.500Z,20.33
2019-04-16T18:12:10.566Z,13.27
2019-04-16T18:15:00.057Z,20.20
2019-04-16T18:17:50.633Z,19.10
2019-04-16T18:20:57.167Z,12.40
2019-04-16T18:23:40.179Z,17.27
2019-04-16T18:26:28.583Z,18.83
2019-04-16T18:29:04.894Z,17.50
2019-04-16T18:31:41.011Z,17.00
2019-04-16T18:34:30.530Z,18.97
2019-04-16T18:37:18.869Z,18.93
2019-04-16T18:39:55.593Z,21.03
2019-04-16T18:43:00.364Z,21.37
2019-04-16T18:48:32.296Z,17.90
2019-04-16T18:51:02.839Z,17.60
2019-04-16T18:56:57.101Z,18.77
2019-04-16T18:59:27.892Z,15.73
2019-04-16T19:02:08.313Z,16.47
2019-04-16T19:04:36.887Z,12.27
2019-04-16T19:07:07.468Z,14.87
2019-04-16T19:09:38.113Z,19.73
2019-04-16T19:12:09.339Z,16.13
2019-04-16T19:14:39.890Z,20.63
2019-04-16T19:17:10.680Z,16.83
2019-04-16T19:19:44.575Z,16.63
2019-04-16T19:22:13.727Z,14.33
2019-04-16T19:24:44.240Z,12.90
2019-04-16T19:27:14.787Z,16.87
2019-04-16T19:29:47.122Z,15.03
2019-04-16T19:32:17.668Z,15.60
2019-04-16T19:34:48.243Z,16.47
2019-04-16T19:37:18.916Z,18.47
2019-04-16T19:39:49.508Z,17.07
2019-04-16T19:42:20.125Z,16.50
2019-04-16T19:44:50.829Z,20.33
2019-04-16T19:47:23.405Z,21.67
2019-04-16T19:49:53.709Z,26.20
2019-04-16T19:52:24.490Z,30.50
2019-04-16T19:54:55.095Z,31.00
2019-04-16T19:57:25.965Z,30.77
2019-04-16T19:59:56.561Z,28.17
2019-04-16T20:02:27.204Z,23.50
2019-04-16T20:04:58.120Z,26.57
2019-04-16T20:07:32.664Z,20.23
2019-04-16T20:10:01.273Z,25.00
2019-04-16T20:12:32.552Z,24.37
2019-04-16T20:15:07.955Z,25.90
2019-04-16T20:17:35.375Z,23.13
2019-04-16T20:20:07.465Z,26.93
2019-04-16T20:22:38.032Z,22.03
2019-04-16T20:25:08.737Z,20.93
2019-04-16T20:27:40.570Z,24.93
2019-04-16T20:30:13.621Z,25.77
2019-04-16T20:32:44.535Z,23.60
2019-04-16T20:35:18.319Z,27.10
2019-04-16T20:37:47.298Z,22.37
2019-04-16T20:40:19.456Z,23.13
2019-04-16T20:42:50.032Z,22.23
2019-04-16T20:45:20.580Z,30.50
2019-04-16T20:47:51.245Z,21.03
2019-04-16T20:50:21.840Z,17.70
2019-04-16T20:52:52.291Z,27.93
2019-04-16T20:55:22.758Z,19.07
2019-04-16T20:57:55.398Z,18.57
2019-04-16T21:00:28.786Z,19.60
2019-04-16T21:03:02.316Z,20.47
2019-04-16T21:05:35.440Z,17.23
2019-04-16T21:08:03.635Z,17.47
2019-04-16T21:10:35.648Z,16.47
2019-04-16T21:13:06.694Z,23.00
2019-04-16T21:15:37.293Z,14.53
2019-04-16T21:18:11.123Z,23.27
2019-04-16T21:20:40.045Z,19.23
2019-04-16T21:23:10.486Z,15.50
2019-04-16T21:25:42.846Z,21.50
2019-04-16T21:28:35.280Z,19.53
2019-04-16T21:31:12.985Z,17.10
2019-04-16T21:33:56.774Z,19.47
2019-04-16T21:36:55.648Z,21.83
2019-04-16T21:39:34.465Z,15.77
2019-04-16T21:42:06.409Z,20.53
2019-04-16T21:44:37.009Z,21.63
2019-04-16T21:47:07.642Z,20.70
2019-04-16T21:49:44.649Z,18.40
2019-04-16T21:52:11.404Z,21.33
2019-04-16T21:54:41.945Z,21.23
2019-04-16T21:57:13.359Z,18.07
2019-04-16T21:59:44.651Z,18.70
2019-04-16T22:02:37.968Z,22.83
2019-04-16T22:05:10.005Z,29.47
2019-04-16T22:07:40.639Z,21.63
2019-04-16T22:10:11.231Z,21.03
2019-04-16T22:12:44.714Z,17.43
2019-04-16T22:15:14.093Z,16.30
2019-04-16T22:17:44.632Z,18.03
2019-04-16T22:20:15.158Z,18.10
2019-04-16T22:22:46.678Z,22.30
2019-04-16T22:25:17.898Z,16.70
2019-04-16T22:27:48.753Z,22.37
2019-04-16T22:30:20.111Z,22.37
2019-04-16T22:32:50.830Z,19.43
2019-04-16T22:35:21.436Z,17.63
2019-04-16T22:37:52.098Z,18.30
2019-04-16T22:40:40.559Z,17.97
2019-04-16T22:43:42.734Z,17.03
2019-04-16T22:46:32.853Z,23.83
2019-04-16T22:49:03.374Z,22.10
2019-04-16T22:51:33.936Z,17.10
2019-04-16T22:54:05.622Z,16.43
2019-04-16T22:56:53.973Z,20.57
2019-04-16T22:59:24.478Z,19.67
2019-04-16T23:01:54.962Z,21.00
2019-04-16T23:04:26.081Z,19.97
2019-04-16T23:06:57.783Z,18.70
2019-04-16T23:09:30.282Z,17.30
2019-04-16T23:12:00.853Z,18.53
2019-04-16T23:14:31.710Z,18.27
2019-04-16T23:17:03.400Z,18.57
2019-04-16T23:19:33.828Z,18.43
2019-04-16T23:22:04.530Z,19.43
2019-04-16T23:24:34.976Z,16.97
2019-04-16T23:27:06.361Z,20.30
2019-04-16T23:29:37.297Z,18.13
2019-04-16T23:32:07.809Z,20.50
2019-04-16T23:34:39.150Z,17.90
2019-04-16T23:37:11.323Z,22.90
2019-04-16T23:39:42.040Z,22.80
2019-04-16T23:42:12.582Z,17.93
2019-04-16T23:45:00.389Z,21.87
2019-04-16T23:48:06.502Z,17.77
2019-04-16T23:50:45.487Z,14.47
2019-04-16T23:53:42.717Z,21.30
2019-04-16T23:56:27.947Z,15.90
2019-04-16T23:59:17.476Z,17.47
